createdAt,value
2023-04-09T00:01:22.489Z,70.19
2023-04-09T00:03:50.868Z,70.15
2023-04-09T00:06:19.385Z,70.17
2023-04-09T00:08:47.398Z,70.25
2023-04-09T00:11:23.514Z,70.27
2023-04-09T00:13:52.460Z,70.34
2023-04-09T00:16:20.750Z,70.47
2023-04-09T00:18:49.104Z,70.52
2023-04-09T00:21:17.438Z,70.62
2023-04-09T00:23:45.495Z,70.67
2023-04-09T00:26:13.506Z,70.80
2023-04-09T00:28:42.141Z,70.73
2023-04-09T00:31:10.951Z,70.91
2023-04-09T00:33:39.705Z,70.87
2023-04-09T00:36:09.320Z,70.94
2023-04-09T00:38:37.615Z,70.85
2023-04-09T00:41:07.480Z,70.87
2023-04-09T00:43:36.668Z,70.98
2023-04-09T00:46:04.745Z,71.01
2023-04-09T00:48:34.955Z,70.98
2023-04-09T00:51:03.013Z,71.13
2023-04-09T00:53:32.138Z,71.27
2023-04-09T00:56:00.201Z,71.29
2023-04-09T00:58:33.532Z,71.37
2023-04-09T01:01:02.355Z,71.48
2023-04-09T01:03:32.070Z,71.56
2023-04-09T01:06:06.387Z,71.68
2023-04-09T01:08:56.437Z,71.71
2023-04-09T01:11:46.657Z,71.68
2023-04-09T01:14:16.442Z,71.85
2023-04-09T01:16:48.355Z,71.80
2023-04-09T01:19:31.879Z,71.74
2023-04-09T01:21:59.906Z,71.73
2023-04-09T01:24:42.874Z,71.83
2023-04-09T01:27:12.537Z,71.97
2023-04-09T01:29:53.038Z,72.07
2023-04-09T01:32:21.098Z,71.98
2023-04-09T01:34:50.899Z,72.00
2023-04-09T01:37:19.062Z,71.96
2023-04-09T01:39:47.417Z,71.99
2023-04-09T01:42:16.029Z,72.03
2023-04-09T01:44:44.212Z,72.05
2023-04-09T01:47:12.501Z,72.06
2023-04-09T01:49:41.702Z,71.96
2023-04-09T01:52:10.127Z,71.99
2023-04-09T01:54:38.242Z,72.07
2023-04-09T01:57:06.477Z,72.03
2023-04-09T01:59:34.848Z,72.10
2023-04-09T02:02:15.469Z,72.05
2023-04-09T02:04:46.466Z,72.02
2023-04-09T02:07:33.290Z,71.86
2023-04-09T02:10:01.981Z,71.83
2023-04-09T02:12:30.338Z,71.76
2023-04-09T02:15:01.648Z,71.84
2023-04-09T02:17:30.301Z,71.91
2023-04-09T02:19:58.674Z,71.81
2023-04-09T02:22:26.669Z,71.72
2023-04-09T02:24:55.200Z,71.74
2023-04-09T02:27:23.226Z,71.64
2023-04-09T02:29:52.076Z,71.68
2023-04-09T02:32:20.553Z,71.66
2023-04-09T02:34:51.391Z,71.65
2023-04-09T02:37:19.453Z,71.59
2023-04-09T02:39:48.475Z,71.50
2023-04-09T02:42:16.476Z,71.51
2023-04-09T02:44:44.817Z,71.52
2023-04-09T02:47:20.273Z,71.50
2023-04-09T02:49:50.066Z,71.52
2023-04-09T02:52:20.403Z,71.48
2023-04-09T02:54:48.683Z,71.55
2023-04-09T02:57:17.189Z,71.62
2023-04-09T02:59:47.372Z,71.70
2023-04-09T03:02:15.615Z,71.68
2023-04-09T03:04:43.840Z,71.71
2023-04-09T03:07:11.913Z,71.80
2023-04-09T03:09:45.440Z,71.85
2023-04-09T03:12:13.683Z,71.84
2023-04-09T03:14:42.046Z,71.95
2023-04-09T03:17:12.576Z,72.07
2023-04-09T03:19:40.949Z,72.15
2023-04-09T03:22:09.519Z,72.23
2023-04-09T03:24:37.917Z,72.36
2023-04-09T03:27:07.246Z,72.40
2023-04-09T03:29:35.416Z,72.35
2023-04-09T03:32:03.938Z,72.43
2023-04-09T03:34:32.443Z,72.36
2023-04-09T03:37:00.641Z,72.40
2023-04-09T03:39:33.071Z,72.33
2023-04-09T03:42:07.701Z,72.30
2023-04-09T03:44:44.044Z,72.12
2023-04-09T03:47:16.364Z,72.07
2023-04-09T03:49:46.428Z,72.25
2023-04-09T03:52:24.722Z,72.11
2023-04-09T03:55:03.416Z,72.05
2023-04-09T03:57:31.616Z,72.17
2023-04-09T04:00:01.454Z,72.07
2023-04-09T04:02:36.501Z,72.06
2023-04-09T04:05:06.575Z,72.05
2023-04-09T04:07:38.181Z,71.90
2023-04-09T04:10:13.720Z,71.68
2023-04-09T04:12:45.011Z,71.39
2023-04-09T04:15:28.284Z,71.43
2023-04-09T04:17:57.018Z,71.48
2023-04-09T04:20:46.857Z,71.28
2023-04-09T04:23:35.504Z,71.16
2023-04-09T04:26:15.846Z,71.01
2023-04-09T04:28:44.431Z,70.68
2023-04-09T04:31:16.037Z,70.50
2023-04-09T04:33:46.801Z,70.49
2023-04-09T04:36:16.250Z,70.57
2023-04-09T04:38:53.560Z,70.42
2023-04-09T04:41:29.710Z,70.45
2023-04-09T04:44:07.918Z,70.35
2023-04-09T04:46:36.197Z,70.49
2023-04-09T04:49:04.214Z,70.48
2023-04-09T04:51:32.921Z,70.27
2023-04-09T04:54:09.407Z,70.03
2023-04-09T04:56:37.616Z,69.85
2023-04-09T04:59:17.222Z,69.78
2023-04-09T05:01:51.156Z,69.83
2023-04-09T05:04:19.368Z,69.72
2023-04-09T05:06:56.600Z,69.65
2023-04-09T05:09:25.455Z,69.43
2023-04-09T05:12:18.174Z,69.28
2023-04-09T05:14:49.796Z,68.98
2023-04-09T05:17:17.862Z,68.85
2023-04-09T05:19:53.827Z,68.78
2023-04-09T05:22:27.254Z,68.68
2023-04-09T05:24:57.044Z,68.61
2023-04-09T05:27:27.698Z,68.53
2023-04-09T05:30:01.626Z,68.42
2023-04-09T05:32:34.370Z,68.31
2023-04-09T05:35:02.958Z,68.14
2023-04-09T05:37:32.065Z,67.87
2023-04-09T05:40:00.189Z,67.71
2023-04-09T05:42:28.664Z,67.68
2023-04-09T05:45:16.996Z,67.40
2023-04-09T05:47:51.857Z,67.39
2023-04-09T05:50:23.028Z,67.08
2023-04-09T05:52:59.709Z,67.00
2023-04-09T05:55:34.204Z,66.89
2023-04-09T05:58:02.505Z,66.54
2023-04-09T06:00:34.604Z,66.00
2023-04-09T06:03:04.877Z,65.26
2023-04-09T06:05:33.364Z,63.78
2023-04-09T06:08:01.757Z,62.62
2023-04-09T06:10:32.975Z,61.16
2023-04-09T06:13:01.043Z,60.43
2023-04-09T06:15:38.346Z,60.54
2023-04-09T06:18:06.938Z,60.83
2023-04-09T06:20:35.731Z,60.93
2023-04-09T06:23:07.465Z,60.57
2023-04-09T06:25:36.791Z,59.78
2023-04-09T06:28:05.046Z,58.70
2023-04-09T06:30:37.543Z,58.06
2023-04-09T06:33:06.432Z,58.20
2023-04-09T06:35:34.521Z,58.12
2023-04-09T06:38:03.649Z,58.45
2023-04-09T06:40:32.675Z,58.42
2023-04-09T06:43:00.835Z,58.38
2023-04-09T06:45:33.602Z,58.62
2023-04-09T06:48:01.983Z,58.72
2023-04-09T06:50:39.129Z,58.78
2023-04-09T06:53:07.273Z,58.96
2023-04-09T06:55:35.380Z,59.17
2023-04-09T06:58:08.530Z,58.49
2023-04-09T07:00:37.544Z,58.25
2023-04-09T07:03:18.514Z,56.67
2023-04-09T07:05:47.329Z,55.65
2023-04-09T07:08:15.742Z,54.82
2023-04-09T07:10:52.811Z,54.69
2023-04-09T07:13:22.959Z,53.10
2023-04-09T07:15:51.320Z,49.92
2023-04-09T07:18:20.879Z,46.84
2023-04-09T07:20:49.985Z,44.88
2023-04-09T07:23:18.004Z,43.90
2023-04-09T07:25:48.408Z,43.76
2023-04-09T07:28:16.537Z,43.65
2023-04-09T07:30:46.368Z,43.90
2023-04-09T07:33:14.530Z,43.32
2023-04-09T07:35:43.677Z,42.88
2023-04-09T07:38:11.894Z,43.16
2023-04-09T07:40:41.585Z,43.89
2023-04-09T07:43:09.849Z,44.53
2023-04-09T07:45:37.845Z,45.21
2023-04-09T07:48:06.247Z,45.69
2023-04-09T07:50:34.948Z,46.43
2023-04-09T07:53:03.386Z,47.04
2023-04-09T07:55:32.248Z,47.61
2023-04-09T07:58:00.271Z,48.02
2023-04-09T08:00:32.924Z,48.40
2023-04-09T08:03:04.163Z,48.73
2023-04-09T08:05:32.716Z,48.79
2023-04-09T08:08:06.274Z,49.03
2023-04-09T08:10:34.496Z,49.34
2023-04-09T08:13:02.602Z,49.57
2023-04-09T08:15:38.319Z,49.84
2023-04-09T08:18:07.502Z,49.98
2023-04-09T08:20:35.582Z,50.18
2023-04-09T08:23:03.645Z,50.40
2023-04-09T08:25:32.036Z,50.36
2023-04-09T08:28:00.518Z,50.57
2023-04-09T08:30:29.417Z,50.76
2023-04-09T08:32:58.505Z,50.59
2023-04-09T08:35:26.661Z,50.51
2023-04-09T08:37:56.920Z,50.37
2023-04-09T08:40:25.456Z,50.91
2023-04-09T08:42:57.048Z,51.00
2023-04-09T08:45:25.212Z,51.24
2023-04-09T08:47:53.333Z,51.16
2023-04-09T08:50:22.328Z,50.74
2023-04-09T08:52:50.430Z,50.59
2023-04-09T08:55:20.631Z,50.81
2023-04-09T08:57:48.709Z,51.00
2023-04-09T09:00:17.160Z,50.77
2023-04-09T09:03:11.692Z,49.59
2023-04-09T09:05:44.327Z,49.74
2023-04-09T09:08:22.997Z,48.74
2023-04-09T09:10:51.140Z,47.30
2023-04-09T09:13:25.955Z,46.48
2023-04-09T09:15:57.285Z,46.55
2023-04-09T09:18:38.651Z,46.64
2023-04-09T09:21:13.614Z,46.27
2023-04-09T09:23:42.881Z,45.19
2023-04-09T09:26:21.907Z,45.13
2023-04-09T09:28:50.855Z,45.31
2023-04-09T09:31:20.608Z,45.44
2023-04-09T09:33:50.584Z,44.93
2023-04-09T09:36:34.827Z,44.56
2023-04-09T09:39:10.232Z,44.35
2023-04-09T09:41:46.078Z,44.18
2023-04-09T09:44:32.021Z,44.00
2023-04-09T09:47:00.769Z,44.01
2023-04-09T09:49:29.194Z,43.65
2023-04-09T09:51:57.995Z,43.59
2023-04-09T09:54:34.917Z,43.96
2023-04-09T09:57:04.810Z,44.38
2023-04-09T09:59:33.830Z,44.21
2023-04-09T10:02:11.176Z,44.25
2023-04-09T10:04:40.698Z,43.38
2023-04-09T10:07:16.288Z,43.69
2023-04-09T10:09:47.077Z,43.88
2023-04-09T10:12:15.209Z,43.89
2023-04-09T10:14:43.273Z,43.81
2023-04-09T10:17:12.193Z,43.80
2023-04-09T10:19:42.959Z,43.65
2023-04-09T10:22:12.426Z,43.83
2023-04-09T10:24:41.006Z,44.22
2023-04-09T10:27:12.125Z,43.86
2023-04-09T10:29:48.806Z,43.86
2023-04-09T10:32:26.496Z,44.10
2023-04-09T10:35:14.690Z,44.81
2023-04-09T10:37:42.857Z,44.87
2023-04-09T10:40:20.524Z,44.78
2023-04-09T10:42:49.412Z,44.84
2023-04-09T10:45:23.083Z,44.64
2023-04-09T10:47:53.771Z,44.08
2023-04-09T10:50:32.688Z,43.64
2023-04-09T10:53:02.746Z,43.70
2023-04-09T10:55:42.561Z,44.04
2023-04-09T10:58:13.559Z,44.44
2023-04-09T11:00:46.952Z,44.30
2023-04-09T11:03:27.780Z,44.20
2023-04-09T11:06:10.271Z,43.93
2023-04-09T11:08:39.486Z,43.71
2023-04-09T11:11:07.725Z,43.76
2023-04-09T11:13:41.836Z,43.85
2023-04-09T11:16:22.800Z,44.06
2023-04-09T11:19:03.094Z,43.96
2023-04-09T11:21:37.988Z,43.90
2023-04-09T11:24:09.485Z,43.97
2023-04-09T11:26:44.086Z,44.20
2023-04-09T11:29:15.150Z,44.45
2023-04-09T11:31:49.672Z,44.32
2023-04-09T11:34:37.943Z,43.53
2023-04-09T11:37:09.423Z,43.51
2023-04-09T11:39:41.023Z,43.57
2023-04-09T11:42:13.698Z,43.64
2023-04-09T11:44:47.123Z,43.49
2023-04-09T11:47:31.812Z,42.90
2023-04-09T11:50:03.049Z,42.00
2023-04-09T11:52:36.860Z,42.08
2023-04-09T11:55:09.632Z,42.42
2023-04-09T11:57:50.675Z,42.27
2023-04-09T12:00:21.090Z,41.97
2023-04-09T12:03:04.985Z,42.00
2023-04-09T12:05:57.109Z,41.37
2023-04-09T12:08:25.519Z,41.02
2023-04-09T12:11:09.350Z,41.12
2023-04-09T12:13:44.765Z,41.48
2023-04-09T12:16:14.365Z,41.54
2023-04-09T12:19:09.021Z,41.26
2023-04-09T12:21:58.578Z,41.55
2023-04-09T12:24:28.253Z,41.85
2023-04-09T12:27:01.763Z,41.77
2023-04-09T12:29:30.928Z,41.97
2023-04-09T12:31:59.316Z,41.89
2023-04-09T12:34:27.770Z,41.76
2023-04-09T12:36:56.204Z,41.73
2023-04-09T12:39:24.270Z,41.69
2023-04-09T12:42:01.200Z,41.82
2023-04-09T12:44:33.192Z,41.86
2023-04-09T12:47:02.851Z,42.01
2023-04-09T12:49:33.781Z,42.33
2023-04-09T12:52:02.336Z,42.30
2023-04-09T12:54:31.588Z,41.97
2023-04-09T12:57:02.314Z,42.00
2023-04-09T12:59:32.594Z,41.87
2023-04-09T13:02:02.376Z,41.84
2023-04-09T13:04:33.939Z,42.16
2023-04-09T13:07:03.358Z,42.51
2023-04-09T13:09:35.325Z,42.78
2023-04-09T13:12:03.888Z,42.89
2023-04-09T13:14:32.191Z,43.09
2023-04-09T13:17:00.398Z,43.34
2023-04-09T13:19:31.370Z,43.49
2023-04-09T13:21:59.539Z,42.87
2023-04-09T13:24:27.935Z,42.95
2023-04-09T13:26:56.892Z,43.01
2023-04-09T13:29:29.364Z,42.90
2023-04-09T13:32:11.383Z,43.10
2023-04-09T13:34:40.632Z,43.33
2023-04-09T13:37:09.323Z,43.70
2023-04-09T13:39:39.573Z,44.13
2023-04-09T13:42:13.641Z,44.49
2023-04-09T13:44:45.017Z,45.12
2023-04-09T13:47:16.400Z,45.66
2023-04-09T13:49:46.310Z,46.20
2023-04-09T13:52:14.528Z,46.88
2023-04-09T13:54:42.591Z,48.66
2023-04-09T13:57:10.735Z,50.29
2023-04-09T13:59:38.824Z,51.74
2023-04-09T14:02:09.581Z,52.67
2023-04-09T14:04:39.474Z,56.42
2023-04-09T14:07:08.533Z,59.51
2023-04-09T14:09:40.158Z,61.80
2023-04-09T14:12:08.453Z,63.46
2023-04-09T14:14:37.847Z,64.41
2023-04-09T14:17:07.684Z,65.11
2023-04-09T14:19:36.863Z,65.43
2023-04-09T14:22:15.904Z,65.64
2023-04-09T14:24:44.072Z,65.67
2023-04-09T14:27:12.580Z,65.60
2023-04-09T14:29:46.358Z,65.53
2023-04-09T14:32:23.197Z,65.48
2023-04-09T14:35:09.603Z,65.44
2023-04-09T14:37:41.838Z,65.46
2023-04-09T14:40:14.018Z,65.41
2023-04-09T14:42:44.091Z,65.35
2023-04-09T14:45:24.454Z,65.36
2023-04-09T14:47:55.018Z,65.37
2023-04-09T14:50:27.516Z,65.13
2023-04-09T14:52:56.934Z,64.99
2023-04-09T14:55:44.930Z,64.94
2023-04-09T14:58:19.694Z,64.93
2023-04-09T15:00:53.531Z,64.79
2023-04-09T15:03:23.005Z,64.88
2023-04-09T15:05:51.692Z,64.93
2023-04-09T15:08:26.628Z,64.76
2023-04-09T15:10:59.162Z,64.90
2023-04-09T15:13:34.769Z,65.24
2023-04-09T15:16:06.116Z,65.61
2023-04-09T15:18:39.184Z,65.90
2023-04-09T15:21:08.310Z,66.14
2023-04-09T15:23:36.624Z,66.38
2023-04-09T15:26:09.879Z,66.73
2023-04-09T15:28:39.195Z,66.96
2023-04-09T15:31:07.763Z,67.13
2023-04-09T15:33:55.830Z,67.33
2023-04-09T15:36:31.610Z,67.52
2023-04-09T15:39:07.002Z,67.77
2023-04-09T15:41:35.353Z,67.86
2023-04-09T15:44:04.126Z,68.09
2023-04-09T15:46:41.275Z,68.23
2023-04-09T15:49:10.080Z,68.49
2023-04-09T15:51:39.014Z,68.56
2023-04-09T15:54:08.073Z,68.67
2023-04-09T15:56:40.478Z,68.83
2023-04-09T15:59:13.954Z,68.98
2023-04-09T16:01:43.170Z,69.14
2023-04-09T16:04:12.889Z,69.34
2023-04-09T16:07:02.487Z,69.54
2023-04-09T16:09:50.475Z,69.67
2023-04-09T16:12:25.767Z,69.79
2023-04-09T16:15:08.172Z,69.86
2023-04-09T16:17:40.892Z,69.93
2023-04-09T16:20:11.618Z,69.97
2023-04-09T16:22:44.995Z,69.97
2023-04-09T16:25:14.483Z,69.93
2023-04-09T16:27:48.716Z,70.06
2023-04-09T16:30:23.862Z,70.11
2023-04-09T16:32:56.942Z,70.20
2023-04-09T16:35:26.415Z,70.18
2023-04-09T16:38:09.659Z,70.29
2023-04-09T16:40:38.198Z,70.30
2023-04-09T16:43:11.612Z,70.41
2023-04-09T16:45:40.373Z,70.45
2023-04-09T16:48:28.356Z,70.51
2023-04-09T16:51:01.764Z,70.62
2023-04-09T16:53:38.833Z,70.66
2023-04-09T16:56:10.843Z,70.80
2023-04-09T16:58:39.203Z,70.84
2023-04-09T17:01:08.482Z,70.97
2023-04-09T17:03:49.689Z,71.10
2023-04-09T17:06:18.881Z,71.17
2023-04-09T17:08:48.025Z,71.29
2023-04-09T17:11:17.256Z,71.35
2023-04-09T17:13:51.761Z,71.35
2023-04-09T17:16:24.987Z,71.42
2023-04-09T17:18:53.331Z,71.39
2023-04-09T17:21:27.425Z,71.31
2023-04-09T17:24:04.370Z,71.38
2023-04-09T17:26:34.317Z,71.48
2023-04-09T17:29:03.610Z,71.51
2023-04-09T17:31:32.015Z,71.66
2023-04-09T17:34:19.614Z,71.96
2023-04-09T17:36:50.422Z,71.95
2023-04-09T17:39:25.490Z,72.27
2023-04-09T17:41:56.592Z,72.30
2023-04-09T17:44:38.450Z,72.40
2023-04-09T17:47:12.455Z,72.53
2023-04-09T17:49:42.639Z,72.69
2023-04-09T17:52:14.877Z,72.84
2023-04-09T17:54:46.753Z,72.89
2023-04-09T17:57:15.678Z,73.05
2023-04-09T17:59:49.088Z,73.17
2023-04-09T18:02:17.653Z,73.32
2023-04-09T18:04:53.348Z,73.44
2023-04-09T18:07:22.873Z,73.50
2023-04-09T18:09:52.995Z,73.63
2023-04-09T18:12:21.824Z,73.72
2023-04-09T18:14:59.485Z,73.82
2023-04-09T18:17:32.607Z,73.81
2023-04-09T18:20:01.429Z,73.94
2023-04-09T18:22:29.872Z,73.91
2023-04-09T18:24:59.919Z,73.97
2023-04-09T18:27:29.503Z,73.91
2023-04-09T18:29:59.426Z,73.93
2023-04-09T18:32:38.982Z,73.86
2023-04-09T18:35:07.523Z,73.90
2023-04-09T18:37:36.847Z,74.01
2023-04-09T18:40:18.836Z,74.05
2023-04-09T18:42:54.268Z,74.07
2023-04-09T18:45:22.632Z,74.11
2023-04-09T18:47:52.402Z,74.13
2023-04-09T18:50:27.383Z,74.23
2023-04-09T18:52:56.812Z,74.27
2023-04-09T18:55:38.081Z,74.35
2023-04-09T18:58:12.862Z,74.39
2023-04-09T19:00:41.958Z,74.57
2023-04-09T19:03:10.499Z,74.68
2023-04-09T19:05:40.296Z,74.73
2023-04-09T19:08:08.400Z,74.75
2023-04-09T19:10:36.674Z,74.88
2023-04-09T19:13:05.479Z,74.88
2023-04-09T19:15:33.868Z,74.96
2023-04-09T19:18:02.065Z,74.90
2023-04-09T19:20:30.612Z,74.83
2023-04-09T19:22:59.409Z,74.85
2023-04-09T19:25:31.472Z,74.89
2023-04-09T19:27:59.486Z,74.96
2023-04-09T19:30:27.718Z,75.12
2023-04-09T19:33:09.560Z,75.23
2023-04-09T19:35:40.788Z,75.47
2023-04-09T19:38:14.979Z,75.67
2023-04-09T19:40:45.491Z,75.78
2023-04-09T19:43:13.893Z,75.91
2023-04-09T19:45:44.486Z,76.09
2023-04-09T19:48:12.879Z,76.30
2023-04-09T19:50:48.565Z,76.43
2023-04-09T19:53:16.944Z,76.64
2023-04-09T19:55:45.108Z,76.95
2023-04-09T19:58:14.238Z,77.29
2023-04-09T20:00:42.528Z,77.58
2023-04-09T20:03:10.962Z,77.78
2023-04-09T20:05:39.922Z,77.87
2023-04-09T20:08:11.808Z,78.00
2023-04-09T20:10:46.487Z,78.15
2023-04-09T20:13:17.674Z,78.19
2023-04-09T20:15:45.724Z,78.29
2023-04-09T20:18:20.490Z,78.40
2023-04-09T20:20:52.096Z,78.46
2023-04-09T20:23:20.221Z,78.50
2023-04-09T20:25:56.032Z,78.51
2023-04-09T20:28:24.896Z,78.51
2023-04-09T20:30:53.383Z,78.57
2023-04-09T20:33:21.725Z,78.51
2023-04-09T20:35:50.503Z,78.62
2023-04-09T20:38:20.666Z,78.57
2023-04-09T20:40:52.801Z,78.58
2023-04-09T20:43:21.445Z,78.55
2023-04-09T20:45:53.194Z,78.64
2023-04-09T20:48:21.954Z,78.68
2023-04-09T20:50:49.950Z,78.69
2023-04-09T20:53:18.295Z,78.81
2023-04-09T20:55:46.582Z,78.90
2023-04-09T20:58:21.610Z,79.00
2023-04-09T21:00:49.696Z,79.07
2023-04-09T21:03:18.792Z,79.14
2023-04-09T21:05:48.633Z,79.07
2023-04-09T21:08:17.723Z,79.14
2023-04-09T21:10:46.010Z,79.22
2023-04-09T21:13:16.787Z,79.34
2023-04-09T21:15:48.848Z,79.39
2023-04-09T21:18:17.132Z,79.42
2023-04-09T21:20:51.732Z,79.43
2023-04-09T21:23:25.670Z,79.51
2023-04-09T21:25:53.933Z,79.39
2023-04-09T21:28:22.263Z,79.40
2023-04-09T21:30:52.630Z,79.43
2023-04-09T21:33:20.696Z,79.45
2023-04-09T21:35:56.764Z,79.40
2023-04-09T21:38:24.859Z,79.47
2023-04-09T21:40:53.061Z,79.58
2023-04-09T21:43:21.324Z,79.71
2023-04-09T21:45:49.588Z,79.80
2023-04-09T21:48:18.260Z,79.81
2023-04-09T21:50:46.470Z,79.92
2023-04-09T21:53:15.729Z,79.93
2023-04-09T21:55:44.708Z,79.97
2023-04-09T21:58:12.991Z,79.99
2023-04-09T22:00:41.477Z,79.99
2023-04-09T22:03:09.994Z,79.94
2023-04-09T22:05:38.378Z,79.99
2023-04-09T22:08:07.485Z,80.08
2023-04-09T22:10:35.839Z,80.01
2023-04-09T22:13:11.098Z,80.12
2023-04-09T22:15:42.088Z,80.16
2023-04-09T22:18:10.215Z,80.15
2023-04-09T22:20:42.577Z,80.10
2023-04-09T22:23:11.023Z,80.02
2023-04-09T22:25:39.055Z,80.11
2023-04-09T22:28:10.974Z,80.03
2023-04-09T22:30:41.136Z,80.01
2023-04-09T22:33:09.970Z,79.98
2023-04-09T22:35:38.066Z,79.96
2023-04-09T22:38:07.178Z,79.82
2023-04-09T22:40:35.542Z,79.80
2023-04-09T22:43:03.564Z,79.82
2023-04-09T22:45:32.535Z,79.91
2023-04-09T22:48:00.897Z,79.83
2023-04-09T22:50:29.639Z,79.78
2023-04-09T22:52:57.949Z,79.82
2023-04-09T22:55:26.495Z,79.90
2023-04-09T22:57:58.108Z,79.96
2023-04-09T23:00:26.378Z,79.94
2023-04-09T23:02:54.876Z,79.93
2023-04-09T23:05:23.448Z,79.83
2023-04-09T23:07:51.570Z,79.89
2023-04-09T23:10:19.576Z,79.83
2023-04-09T23:12:58.783Z,79.87
2023-04-09T23:15:27.543Z,79.81
2023-04-09T23:17:56.344Z,79.79
2023-04-09T23:20:24.599Z,79.79
2023-04-09T23:22:53.196Z,79.74
2023-04-09T23:25:25.776Z,79.70
2023-04-09T23:27:54.318Z,79.57
2023-04-09T23:30:23.977Z,79.65
2023-04-09T23:32:53.880Z,79.68
2023-04-09T23:35:23.685Z,79.66
2023-04-09T23:37:55.073Z,79.75
2023-04-09T23:40:23.126Z,79.73
2023-04-09T23:42:51.309Z,79.75
2023-04-09T23:45:24.447Z,79.78
2023-04-09T23:47:53.186Z,79.70
2023-04-09T23:50:24.351Z,79.70
2023-04-09T23:52:53.469Z,79.66
2023-04-09T23:55:21.683Z,79.68
2023-04-09T23:57:49.713Z,79.67
